Time Latitude Longitude Accuracy (66% radius in meters) Altitude (meters) Speed (km/hour) Bearing (degrees) Battery (%) GPS flag
13:38:56 57.203929 60.118240 0 0 0 0 1 delete
13:38:55 57.203937 60.118229 0 0 0 0 1 delete
13:38:54 57.203943 60.118217 0 0 0 0 1 delete
13:38:53 57.203949 60.118205 0 0 0 0 1 delete
13:38:52 57.203957 60.118194 0 0 0 0 1 delete
13:38:51 57.203968 60.118180 0 0 0 0 1 delete
13:38:50 57.203983 60.118159 0 0 0 0 1 delete
13:38:49 57.204000 60.118135 0 0 0 0 1 delete
13:38:48 57.204018 60.118108 0 0 0 0 1 delete
13:38:47 57.204036 60.118086 0 0 0 0 1 delete
13:38:46 57.204054 60.118061 0 0 0 0 1 delete
13:38:45 57.204071 60.118040 0 0 0 0 1 delete
13:38:44 57.204085 60.118019 0 0 0 0 1 delete
13:38:43 57.204098 60.117997 0 0 0 0 1 delete
13:38:42 57.204110 60.117972 0 0 0 0 1 delete
13:38:41 57.204124 60.117932 0 0 0 0 1 delete
13:38:40 57.204138 60.117897 0 0 0 0 1 delete
13:38:39 57.204151 60.117863 0 0 0 0 1 delete
13:38:38 57.204164 60.117843 0 0 0 0 1 delete
13:38:37 57.204178 60.117817 0 0 0 0 1 delete
13:38:36 57.204194 60.117790 0 0 0 0 1 delete
13:38:35 57.204209 60.117764 0 0 0 0 1 delete
13:38:34 57.204222 60.117740 0 0 0 0 1 delete
13:38:33 57.204235 60.117717 0 0 0 0 1 delete
13:38:32 57.204250 60.117693 0 0 0 0 1 delete
13:38:31 57.204266 60.117670 0 0 0 0 1 delete
13:38:30 57.204282 60.117646 0 0 0 0 1 delete
13:38:29 57.204297 60.117622 0 0 0 0 1 delete
13:38:28 57.204315 60.117594 0 0 0 0 1 delete
13:38:27 57.204332 60.117570 0 0 0 0 1 delete
13:38:26 57.204349 60.117547 0 0 0 0 1 delete
13:38:25 57.204366 60.117528 0 0 0 0 1 delete
13:38:24 57.204388 60.117504 0 0 0 0 1 delete
13:38:23 57.204412 60.117484 0 0 0 0 1 delete
13:38:22 57.204434 60.117466 0 0 0 0 1 delete
13:38:21 57.204454 60.117454 0 0 0 0 1 delete
13:38:20 57.204478 60.117441 0 0 0 0 1 delete
13:38:19 57.204504 60.117431 0 0 0 0 1 delete
13:38:18 57.204530 60.117422 0 0 0 0 1 delete
13:38:17 57.204557 60.117418 0 0 0 0 1 delete
13:38:16 57.204586 60.117413 0 0 0 0 1 delete
13:38:15 57.204616 60.117412 0 0 0 0 1 delete
13:38:14 57.204645 60.117415 0 0 0 0 1 delete
13:38:13 57.204675 60.117425 0 0 0 0 1 delete
13:38:12 57.204705 60.117436 0 0 0 0 1 delete
13:38:11 57.204734 60.117449 0 0 0 0 1 delete
13:38:10 57.204766 60.117467 0 0 0 0 1 delete
13:38:09 57.204800 60.117489 0 0 0 0 1 delete
13:38:08 57.204831 60.117510 0 0 0 0 1 delete
13:38:07 57.204857 60.117524 0 0 0 0 1 delete